createdAt,value
2019-02-16T00:00:17.235Z,2.38
2019-02-16T00:01:22.754Z,2.43
2019-02-16T00:03:21.165Z,2.41
2019-02-16T00:04:26.676Z,2.46
2019-02-16T00:06:25.656Z,2.41
2019-02-16T00:07:30.593Z,2.49
2019-02-16T00:09:28.990Z,2.57
2019-02-16T00:10:34.508Z,2.56
2019-02-16T00:12:32.912Z,2.63
2019-02-16T00:13:38.419Z,2.59
2019-02-16T00:15:36.813Z,2.67
2019-02-16T00:16:42.338Z,2.56
2019-02-16T00:18:40.748Z,2.57
2019-02-16T00:19:46.259Z,2.56
2019-02-16T00:21:44.645Z,2.61
2019-02-16T00:22:50.171Z,2.42
2019-02-16T00:24:48.581Z,2.34
2019-02-16T00:25:54.094Z,2.36
2019-02-16T00:27:52.499Z,2.36
2019-02-16T00:28:58.015Z,2.43
2019-02-16T00:30:56.410Z,2.36
2019-02-16T00:32:01.932Z,2.38
2019-02-16T00:34:00.339Z,2.39
2019-02-16T00:35:05.891Z,2.36
2019-02-16T00:37:04.233Z,2.42
2019-02-16T00:38:09.759Z,2.38
2019-02-16T00:40:08.158Z,2.39
2019-02-16T00:41:13.676Z,2.39
2019-02-16T00:43:12.080Z,2.36
2019-02-16T00:44:17.587Z,2.35
2019-02-16T00:46:15.982Z,2.38
2019-02-16T00:47:21.508Z,2.31
2019-02-16T00:49:19.914Z,2.41
2019-02-16T00:50:25.425Z,2.30
2019-02-16T00:52:23.814Z,2.34
2019-02-16T00:53:29.341Z,2.30
2019-02-16T00:55:27.742Z,2.30
2019-02-16T00:56:33.277Z,2.23
2019-02-16T00:58:31.659Z,2.20
2019-02-16T00:59:37.177Z,2.14
2019-02-16T01:01:35.565Z,2.16
2019-02-16T01:02:41.087Z,2.17
2019-02-16T01:04:52.265Z,2.07
2019-02-16T01:05:57.760Z,1.98
2019-02-16T01:07:56.159Z,1.93
2019-02-16T01:09:01.673Z,2.02
2019-02-16T01:11:00.065Z,2.14
2019-02-16T01:12:06.141Z,2.14
2019-02-16T01:14:03.993Z,2.12
2019-02-16T01:15:09.513Z,2.16
2019-02-16T01:17:07.901Z,2.18
2019-02-16T01:18:13.419Z,2.20
2019-02-16T01:20:11.822Z,2.27
2019-02-16T01:21:22.772Z,2.34
2019-02-16T01:23:15.742Z,2.30
2019-02-16T01:24:21.255Z,2.31
2019-02-16T01:26:19.642Z,2.31
2019-02-16T01:27:25.170Z,2.34
2019-02-16T01:29:23.571Z,2.38
2019-02-16T01:30:29.078Z,2.35
2019-02-16T01:32:27.495Z,2.38
2019-02-16T01:33:33.022Z,2.35
2019-02-16T01:35:31.427Z,2.30
2019-02-16T01:36:36.935Z,2.25
2019-02-16T01:38:35.339Z,2.27
2019-02-16T01:39:40.849Z,2.30
2019-02-16T01:41:39.233Z,2.34
2019-02-16T01:42:44.765Z,2.30
2019-02-16T01:44:43.171Z,2.31
2019-02-16T01:45:48.691Z,2.34
2019-02-16T01:47:47.061Z,2.35
2019-02-16T01:48:52.580Z,2.36
2019-02-16T01:50:50.983Z,2.36
2019-02-16T01:51:56.511Z,2.34
2019-02-16T01:53:54.929Z,2.41
2019-02-16T01:55:00.442Z,2.31
2019-02-16T01:56:58.825Z,2.49
2019-02-16T01:58:04.355Z,2.46
2019-02-16T02:00:02.751Z,2.45
2019-02-16T02:01:08.259Z,2.36
2019-02-16T02:03:06.658Z,2.42
2019-02-16T02:04:12.181Z,2.41
2019-02-16T02:06:10.591Z,2.46
2019-02-16T02:07:16.103Z,2.46
2019-02-16T02:09:14.501Z,2.43
2019-02-16T02:10:20.015Z,2.48
2019-02-16T02:12:18.405Z,2.43
2019-02-16T02:13:23.929Z,2.49
2019-02-16T02:15:22.330Z,2.46
2019-02-16T02:16:27.847Z,2.60
2019-02-16T02:18:26.235Z,2.46
2019-02-16T02:19:31.758Z,2.46
2019-02-16T02:21:30.156Z,2.46
2019-02-16T02:22:35.676Z,2.46
2019-02-16T02:24:34.074Z,2.46
2019-02-16T02:25:39.589Z,2.46
2019-02-16T02:27:37.977Z,2.54
2019-02-16T02:28:43.499Z,2.52
2019-02-16T02:30:41.903Z,2.60
2019-02-16T02:31:47.422Z,2.53
2019-02-16T02:33:45.827Z,2.56
2019-02-16T02:34:51.335Z,2.39
2019-02-16T02:36:49.730Z,2.53
2019-02-16T02:37:55.243Z,2.43
2019-02-16T02:39:53.643Z,2.46
2019-02-16T02:40:59.158Z,2.52
2019-02-16T02:42:57.541Z,2.54
2019-02-16T02:44:03.082Z,2.56
2019-02-16T02:46:01.503Z,2.60
2019-02-16T02:47:07.019Z,2.59
2019-02-16T02:49:05.421Z,2.59
2019-02-16T02:50:10.951Z,2.52
2019-02-16T02:52:09.318Z,2.60
2019-02-16T02:53:14.850Z,2.60
2019-02-16T02:55:13.250Z,2.60
2019-02-16T02:56:18.763Z,2.57
2019-02-16T02:58:17.168Z,2.57
2019-02-16T02:59:23.227Z,2.54
2019-02-16T03:01:21.098Z,2.60
2019-02-16T03:02:26.617Z,2.41
2019-02-16T03:04:25.022Z,2.36
2019-02-16T03:05:30.527Z,2.35
2019-02-16T03:07:28.920Z,2.39
2019-02-16T03:08:34.440Z,2.36
2019-02-16T03:10:32.847Z,2.36
2019-02-16T03:11:38.357Z,2.34
2019-02-16T03:13:36.740Z,2.35
2019-02-16T03:14:42.271Z,2.38
2019-02-16T03:16:40.676Z,2.38
2019-02-16T03:17:46.188Z,2.34
2019-02-16T03:19:44.592Z,2.38
2019-02-16T03:20:50.105Z,2.35
2019-02-16T03:22:48.503Z,2.39
2019-02-16T03:23:54.027Z,2.36
2019-02-16T03:25:52.429Z,2.35
2019-02-16T03:26:57.935Z,2.36
2019-02-16T03:28:56.330Z,2.38
2019-02-16T03:30:01.888Z,2.38
2019-02-16T03:32:00.259Z,2.39
2019-02-16T03:33:05.789Z,2.36
2019-02-16T03:35:04.191Z,2.48
2019-02-16T03:36:09.685Z,2.36
2019-02-16T03:38:08.074Z,2.48
2019-02-16T03:39:13.599Z,2.36
2019-02-16T03:41:12.000Z,2.39
2019-02-16T03:42:17.513Z,2.35
2019-02-16T03:44:15.896Z,2.39
2019-02-16T03:45:21.426Z,2.35
2019-02-16T03:47:19.825Z,2.31
2019-02-16T03:48:25.344Z,2.31
2019-02-16T03:50:23.725Z,2.27
2019-02-16T03:51:29.255Z,2.30
2019-02-16T03:53:27.663Z,2.28
2019-02-16T03:54:33.169Z,2.31
2019-02-16T03:56:31.573Z,2.35
2019-02-16T03:57:37.079Z,2.36
2019-02-16T03:59:35.470Z,2.34
2019-02-16T04:00:40.996Z,2.38
2019-02-16T04:02:39.407Z,2.42
2019-02-16T04:03:44.912Z,2.36
2019-02-16T04:05:43.293Z,2.53
2019-02-16T04:06:48.818Z,2.36
2019-02-16T04:08:47.230Z,2.42
2019-02-16T04:09:52.746Z,2.46
2019-02-16T04:11:51.145Z,2.39
2019-02-16T04:12:56.656Z,2.36
2019-02-16T04:14:55.046Z,2.39
2019-02-16T04:16:00.562Z,2.38
2019-02-16T04:17:58.972Z,2.36
2019-02-16T04:19:04.490Z,2.42
2019-02-16T04:21:02.923Z,2.38
2019-02-16T04:22:08.419Z,2.41
2019-02-16T04:24:06.793Z,2.38
2019-02-16T04:25:12.308Z,2.34
2019-02-16T04:27:10.712Z,2.35
2019-02-16T04:28:16.222Z,2.35
2019-02-16T04:30:14.614Z,2.34
2019-02-16T04:31:20.137Z,2.30
2019-02-16T04:33:18.770Z,2.28
2019-02-16T04:34:24.281Z,2.24
2019-02-16T04:36:22.667Z,2.31
2019-02-16T04:37:28.191Z,2.28
2019-02-16T04:39:26.599Z,2.23
2019-02-16T04:40:32.113Z,2.24
2019-02-16T04:42:30.512Z,2.28
2019-02-16T04:43:36.030Z,2.34
2019-02-16T04:45:34.417Z,2.31
2019-02-16T04:46:39.990Z,2.27
2019-02-16T04:48:38.353Z,2.24
2019-02-16T04:49:43.865Z,2.31
2019-02-16T04:51:42.268Z,2.27
2019-02-16T04:52:47.782Z,2.25
2019-02-16T04:54:46.202Z,2.25
2019-02-16T04:55:51.696Z,2.34
2019-02-16T04:57:50.102Z,2.28
2019-02-16T04:58:55.620Z,2.25
2019-02-16T05:00:54.018Z,2.28
2019-02-16T05:01:59.539Z,2.27
2019-02-16T05:03:57.945Z,2.24
2019-02-16T05:05:03.452Z,2.25
2019-02-16T05:07:01.852Z,2.24
2019-02-16T05:08:07.366Z,2.25
2019-02-16T05:10:05.752Z,2.28
2019-02-16T05:11:11.282Z,2.25
2019-02-16T05:13:09.685Z,2.30
2019-02-16T05:14:15.194Z,2.27
2019-02-16T05:16:13.587Z,2.30
2019-02-16T05:17:19.109Z,2.27
2019-02-16T05:19:17.514Z,2.23
2019-02-16T05:20:23.024Z,2.35
2019-02-16T05:22:21.437Z,2.23
2019-02-16T05:23:26.951Z,2.23
2019-02-16T05:25:25.336Z,2.12
2019-02-16T05:26:30.866Z,2.21
2019-02-16T05:28:29.264Z,2.17
2019-02-16T05:29:34.778Z,2.23
2019-02-16T05:31:33.172Z,2.21
2019-02-16T05:32:38.698Z,2.20
2019-02-16T05:34:37.102Z,2.21
2019-02-16T05:35:42.618Z,2.18
2019-02-16T05:37:41.047Z,2.17
2019-02-16T05:38:46.561Z,2.18
2019-02-16T05:40:44.948Z,2.27
2019-02-16T05:41:50.479Z,2.16
2019-02-16T05:43:49.442Z,2.21
2019-02-16T05:44:54.401Z,2.23
2019-02-16T05:46:52.779Z,2.16
2019-02-16T05:47:58.311Z,2.12
2019-02-16T05:49:56.715Z,2.14
2019-02-16T05:51:02.229Z,2.16
2019-02-16T05:53:00.633Z,2.09
2019-02-16T05:54:06.146Z,2.05
2019-02-16T05:56:04.532Z,2.03
2019-02-16T05:57:10.056Z,2.02
2019-02-16T05:59:08.463Z,2.05
2019-02-16T06:00:13.969Z,2.05
2019-02-16T06:02:12.357Z,1.95
2019-02-16T06:03:17.887Z,1.86
2019-02-16T06:05:16.287Z,1.81
2019-02-16T06:06:21.795Z,1.98
2019-02-16T06:08:20.198Z,1.86
2019-02-16T06:09:25.709Z,1.80
2019-02-16T06:11:24.105Z,1.79
2019-02-16T06:12:29.625Z,1.81
2019-02-16T06:14:28.027Z,1.83
2019-02-16T06:15:33.546Z,1.76
2019-02-16T06:17:31.930Z,1.90
2019-02-16T06:18:37.450Z,1.87
2019-02-16T06:20:35.863Z,1.80
2019-02-16T06:21:41.377Z,1.80
2019-02-16T06:23:39.792Z,1.76
2019-02-16T06:24:45.308Z,1.93
2019-02-16T06:26:43.687Z,1.83
2019-02-16T06:27:49.217Z,1.81
2019-02-16T06:29:47.611Z,1.79
2019-02-16T06:30:53.127Z,1.81
2019-02-16T06:32:52.516Z,1.81
2019-02-16T06:33:58.034Z,1.90
2019-02-16T06:35:56.433Z,1.81
2019-02-16T06:37:01.960Z,1.84
2019-02-16T06:39:00.359Z,1.81
2019-02-16T06:40:05.870Z,1.86
2019-02-16T06:42:04.258Z,1.80
2019-02-16T06:43:09.780Z,1.88
2019-02-16T06:45:08.179Z,1.83
2019-02-16T06:46:13.705Z,1.84
2019-02-16T06:48:12.103Z,1.90
2019-02-16T06:49:17.609Z,1.86
2019-02-16T06:51:15.993Z,1.88
2019-02-16T06:52:21.519Z,1.86
2019-02-16T06:54:19.922Z,1.81
2019-02-16T06:55:25.435Z,1.88
2019-02-16T06:57:23.840Z,1.91
2019-02-16T06:58:29.357Z,1.95
2019-02-16T07:00:27.762Z,1.99
2019-02-16T07:01:33.284Z,1.98
2019-02-16T07:03:32.520Z,1.99
2019-02-16T07:04:38.090Z,2.05
2019-02-16T07:06:36.435Z,2.14
2019-02-16T07:07:41.945Z,2.10
2019-02-16T07:09:40.357Z,2.31
2019-02-16T07:10:45.861Z,2.23
2019-02-16T07:12:44.246Z,2.31
2019-02-16T07:13:49.775Z,2.36
2019-02-16T07:15:48.176Z,2.36
2019-02-16T07:16:53.688Z,2.36
2019-02-16T07:18:52.088Z,2.45
2019-02-16T07:19:57.603Z,2.48
2019-02-16T07:21:55.995Z,2.60
2019-02-16T07:23:01.514Z,2.61
2019-02-16T07:24:59.919Z,2.67
2019-02-16T07:26:05.426Z,2.72
2019-02-16T07:28:03.818Z,2.69
2019-02-16T07:29:09.338Z,2.77
2019-02-16T07:31:07.743Z,2.87
2019-02-16T07:33:44.832Z,2.90
2019-02-16T07:34:50.353Z,2.95
2019-02-16T07:36:48.737Z,2.95
2019-02-16T07:37:54.286Z,3.03
2019-02-16T07:39:52.653Z,3.11
2019-02-16T07:40:58.174Z,3.08
2019-02-16T07:42:56.563Z,3.23
2019-02-16T07:44:02.089Z,3.13
2019-02-16T07:46:00.492Z,3.36
2019-02-16T07:47:06.004Z,3.36
2019-02-16T07:49:04.392Z,3.35
2019-02-16T07:50:09.922Z,3.43
2019-02-16T07:52:08.322Z,3.62
2019-02-16T07:53:13.836Z,3.57
2019-02-16T07:55:12.233Z,3.69
2019-02-16T07:56:17.751Z,3.75
2019-02-16T07:58:16.139Z,3.88
2019-02-16T07:59:21.668Z,3.93
2019-02-16T08:01:20.070Z,3.98
2019-02-16T08:02:25.585Z,4.18
2019-02-16T08:04:23.991Z,4.16
2019-02-16T08:05:29.498Z,4.22
2019-02-16T08:07:27.902Z,4.33
2019-02-16T08:08:33.416Z,4.42
2019-02-16T08:10:31.816Z,4.51
2019-02-16T08:11:37.331Z,4.55
2019-02-16T08:13:35.723Z,4.67
2019-02-16T08:14:41.249Z,4.67
2019-02-16T08:16:39.654Z,4.84
2019-02-16T08:17:45.164Z,4.75
2019-02-16T08:19:43.558Z,4.85
2019-02-16T08:20:49.091Z,5.00
2019-02-16T08:22:47.520Z,5.03
2019-02-16T08:23:53.003Z,5.17
2019-02-16T08:25:51.394Z,5.13
2019-02-16T08:26:56.924Z,5.21
2019-02-16T08:28:55.323Z,5.35
2019-02-16T08:30:00.852Z,5.39
2019-02-16T08:31:59.243Z,5.51
2019-02-16T08:33:04.761Z,5.51
2019-02-16T08:35:03.161Z,5.58
2019-02-16T08:36:08.684Z,5.64
2019-02-16T08:38:07.086Z,5.74
2019-02-16T08:39:12.602Z,5.86
2019-02-16T08:41:10.992Z,5.89
2019-02-16T08:42:16.523Z,5.97
2019-02-16T08:44:14.942Z,6.00
2019-02-16T08:45:20.441Z,6.14
2019-02-16T08:47:18.847Z,6.28
2019-02-16T08:48:24.366Z,6.22
2019-02-16T08:50:22.775Z,6.27
2019-02-16T08:51:28.291Z,6.38
2019-02-16T08:53:26.704Z,6.43
2019-02-16T08:54:32.210Z,6.52
2019-02-16T08:56:30.607Z,6.52
2019-02-16T08:57:36.138Z,6.67
2019-02-16T08:59:34.544Z,6.84
2019-02-16T09:00:40.058Z,6.74
2019-02-16T09:02:38.463Z,6.87
2019-02-16T09:03:43.999Z,7.07
2019-02-16T09:05:42.468Z,7.05
2019-02-16T09:06:47.967Z,7.09
2019-02-16T09:08:46.374Z,7.20
2019-02-16T09:09:51.992Z,7.24
2019-02-16T09:11:50.286Z,7.30
2019-02-16T09:12:55.812Z,7.45
2019-02-16T09:14:54.238Z,7.55
2019-02-16T09:15:59.757Z,7.53
2019-02-16T09:17:58.160Z,7.72
2019-02-16T09:19:03.677Z,7.82
2019-02-16T09:21:02.091Z,8.05
2019-02-16T09:22:07.609Z,8.15
2019-02-16T09:24:06.863Z,8.30
2019-02-16T09:25:12.382Z,8.43
2019-02-16T09:27:10.785Z,8.71
2019-02-16T09:28:16.317Z,8.80
2019-02-16T09:30:14.734Z,8.99
2019-02-16T09:31:20.247Z,9.13
2019-02-16T09:33:18.651Z,9.20
2019-02-16T09:34:24.183Z,9.33
2019-02-16T09:36:22.595Z,9.39
2019-02-16T09:37:28.884Z,9.47
2019-02-16T09:39:27.109Z,9.54
2019-02-16T09:40:32.041Z,9.65
2019-02-16T09:42:30.463Z,9.69
2019-02-16T09:43:35.975Z,9.78
2019-02-16T09:45:34.382Z,9.81
2019-02-16T09:46:39.900Z,9.96
2019-02-16T09:48:38.297Z,10.07
2019-02-16T09:49:43.827Z,10.05
2019-02-16T09:51:42.241Z,10.14
2019-02-16T09:52:47.752Z,10.08
2019-02-16T09:54:46.155Z,10.22
2019-02-16T09:55:51.687Z,10.33
2019-02-16T09:57:50.099Z,10.38
2019-02-16T09:58:55.616Z,10.42
2019-02-16T10:00:54.027Z,10.48
2019-02-16T10:01:59.538Z,10.61
2019-02-16T10:03:57.941Z,10.76
2019-02-16T10:05:03.483Z,10.91
2019-02-16T10:07:01.884Z,10.96
2019-02-16T10:08:07.404Z,10.97
2019-02-16T10:10:06.289Z,11.03
2019-02-16T10:11:11.838Z,11.06
2019-02-16T10:13:10.235Z,11.18
2019-02-16T10:14:15.754Z,11.19
2019-02-16T10:16:14.187Z,11.21
2019-02-16T10:17:19.729Z,11.29
2019-02-16T10:19:18.109Z,11.25
2019-02-16T10:20:23.635Z,11.46
2019-02-16T10:22:22.076Z,11.40
2019-02-16T10:23:27.618Z,11.47
2019-02-16T10:25:25.990Z,11.55
2019-02-16T10:26:31.525Z,11.61
2019-02-16T10:28:29.936Z,11.73
2019-02-16T10:29:35.448Z,11.67
2019-02-16T10:31:33.895Z,11.85
2019-02-16T10:32:39.424Z,11.85
2019-02-16T10:34:37.864Z,11.96
2019-02-16T10:35:43.356Z,12.04
2019-02-16T10:37:41.788Z,11.98
2019-02-16T10:38:47.286Z,12.04
2019-02-16T10:40:45.698Z,12.01
2019-02-16T10:41:51.219Z,12.05
2019-02-16T10:43:49.659Z,12.21
2019-02-16T10:44:55.154Z,12.16
2019-02-16T10:46:53.570Z,12.35
2019-02-16T10:47:59.107Z,12.32
2019-02-16T10:49:57.506Z,12.37
2019-02-16T10:51:03.047Z,12.41
2019-02-16T10:53:01.465Z,12.38
2019-02-16T10:54:07.008Z,12.45
2019-02-16T10:56:06.247Z,12.42
2019-02-16T10:57:11.785Z,12.42
2019-02-16T10:59:10.244Z,12.46
2019-02-16T11:00:15.729Z,12.53
2019-02-16T11:02:14.698Z,12.67
2019-02-16T11:03:19.677Z,12.70
2019-02-16T11:05:18.081Z,12.68
2019-02-16T11:06:23.597Z,12.82
2019-02-16T11:08:22.575Z,12.83
2019-02-16T11:09:27.542Z,12.90
2019-02-16T11:11:25.934Z,12.97
2019-02-16T11:12:32.012Z,13.01
2019-02-16T11:14:29.887Z,13.05
2019-02-16T11:15:35.408Z,12.96
2019-02-16T11:17:33.809Z,13.08
2019-02-16T11:18:39.344Z,13.03
2019-02-16T11:20:37.773Z,13.12
2019-02-16T11:21:43.288Z,13.11
2019-02-16T11:23:41.696Z,13.14
2019-02-16T11:24:47.224Z,13.19
2019-02-16T11:26:45.652Z,13.20
2019-02-16T11:27:51.172Z,13.20
2019-02-16T11:29:49.584Z,13.23
2019-02-16T11:30:55.109Z,13.30
2019-02-16T11:32:53.509Z,13.33
2019-02-16T11:33:59.046Z,13.29
2019-02-16T11:35:57.459Z,13.42
2019-02-16T11:37:02.980Z,13.41
2019-02-16T11:39:01.383Z,13.54
2019-02-16T11:40:06.970Z,13.55
2019-02-16T11:42:05.331Z,13.55
2019-02-16T11:43:10.855Z,13.64
2019-02-16T11:45:09.276Z,13.73
2019-02-16T11:46:14.784Z,13.73
2019-02-16T11:48:13.188Z,13.85
2019-02-16T11:49:18.728Z,13.89
2019-02-16T11:51:17.150Z,13.89
2019-02-16T11:52:22.679Z,13.87
2019-02-16T11:54:21.078Z,13.88
2019-02-16T11:55:26.610Z,14.00
2019-02-16T11:57:25.056Z,14.03
2019-02-16T11:58:30.578Z,14.15
2019-02-16T12:00:28.978Z,14.17
2019-02-16T12:01:34.514Z,14.22
2019-02-16T12:03:32.930Z,14.35
2019-02-16T12:04:38.451Z,14.32
2019-02-16T12:06:36.856Z,14.28
2019-02-16T12:07:42.387Z,14.18
2019-02-16T12:09:40.804Z,14.32
2019-02-16T12:10:46.334Z,14.29
2019-02-16T12:12:44.749Z,14.33
2019-02-16T12:13:50.263Z,14.40
2019-02-16T12:15:48.703Z,14.40
2019-02-16T12:16:54.222Z,14.50
2019-02-16T12:18:52.671Z,14.60
2019-02-16T12:19:58.167Z,14.55
2019-02-16T12:21:57.418Z,14.58
2019-02-16T12:23:02.965Z,14.57
2019-02-16T12:25:05.715Z,14.54
2019-02-16T12:26:06.938Z,14.65
2019-02-16T12:28:05.424Z,14.58
2019-02-16T12:29:10.863Z,14.77
2019-02-16T12:31:09.794Z,14.69
2019-02-16T12:32:15.275Z,14.69
2019-02-16T12:34:13.690Z,14.68
2019-02-16T12:35:19.211Z,14.73
2019-02-16T12:37:17.613Z,14.72
2019-02-16T12:38:23.149Z,14.55
2019-02-16T12:40:21.565Z,14.58
2019-02-16T12:41:27.083Z,14.62
2019-02-16T12:43:25.486Z,14.69
2019-02-16T12:44:31.022Z,14.55
2019-02-16T12:46:29.436Z,14.62
2019-02-16T12:47:34.955Z,14.72
2019-02-16T12:49:33.377Z,14.61
2019-02-16T12:50:38.899Z,14.64
2019-02-16T12:52:37.305Z,14.61
2019-02-16T12:53:42.842Z,14.72
2019-02-16T12:55:41.261Z,14.78
2019-02-16T12:56:46.777Z,14.78
2019-02-16T12:58:45.183Z,14.80
2019-02-16T12:59:50.718Z,14.75
2019-02-16T13:01:49.140Z,14.70
2019-02-16T13:02:54.657Z,14.73
2019-02-16T13:04:53.086Z,14.77
2019-02-16T13:05:58.596Z,14.77
2019-02-16T13:07:56.997Z,14.75
2019-02-16T13:09:02.546Z,14.75
2019-02-16T13:11:00.962Z,14.80
2019-02-16T13:12:06.467Z,14.88
2019-02-16T13:14:04.875Z,14.77
2019-02-16T13:15:10.413Z,14.84
2019-02-16T13:17:08.825Z,14.73
2019-02-16T13:18:14.351Z,14.77
2019-02-16T13:20:12.755Z,14.80
2019-02-16T13:21:18.293Z,14.77
2019-02-16T13:23:16.705Z,14.73
2019-02-16T13:24:22.233Z,14.80
2019-02-16T13:26:20.639Z,14.80
2019-02-16T13:27:26.172Z,14.77
2019-02-16T13:29:24.590Z,14.75
2019-02-16T13:30:30.110Z,14.77
2019-02-16T13:32:28.520Z,14.80
2019-02-16T13:33:34.068Z,14.77
2019-02-16T13:35:32.475Z,14.73
2019-02-16T13:36:37.991Z,14.75
2019-02-16T13:38:36.400Z,14.78
2019-02-16T13:39:41.932Z,14.64
2019-02-16T13:41:40.351Z,14.72
2019-02-16T13:42:45.872Z,14.77
2019-02-16T13:44:44.311Z,14.73
2019-02-16T13:45:49.832Z,14.70
2019-02-16T13:47:48.225Z,14.61
2019-02-16T13:48:53.758Z,14.70
2019-02-16T13:50:52.181Z,14.68
2019-02-16T13:51:57.696Z,14.73
2019-02-16T13:53:57.012Z,14.60
2019-02-16T13:55:02.554Z,14.60
2019-02-16T13:57:01.824Z,14.58
2019-02-16T13:58:07.346Z,14.45
2019-02-16T14:00:05.791Z,14.52
2019-02-16T14:01:11.424Z,14.42
2019-02-16T14:03:09.752Z,14.39
2019-02-16T14:04:15.264Z,14.36
2019-02-16T14:06:13.700Z,14.33
2019-02-16T14:07:19.207Z,14.32
2019-02-16T14:09:17.610Z,14.35
2019-02-16T14:10:23.146Z,14.28
2019-02-16T14:12:21.583Z,14.28
2019-02-16T14:13:27.088Z,14.22
2019-02-16T14:15:25.489Z,14.25
2019-02-16T14:16:31.025Z,14.21
2019-02-16T14:18:29.449Z,14.20
2019-02-16T14:19:34.966Z,14.14
2019-02-16T14:21:33.373Z,14.04
2019-02-16T14:22:38.906Z,14.03
2019-02-16T14:24:37.325Z,13.92
2019-02-16T14:25:45.513Z,13.88
2019-02-16T14:27:41.268Z,13.81
2019-02-16T14:28:48.479Z,13.77
2019-02-16T14:30:45.190Z,13.69
2019-02-16T14:31:50.726Z,13.60
2019-02-16T14:33:49.142Z,13.66
2019-02-16T14:34:54.659Z,13.59
2019-02-16T14:36:53.061Z,13.54
2019-02-16T14:37:58.596Z,13.54
2019-02-16T14:39:57.018Z,13.48
2019-02-16T14:41:02.541Z,13.49
2019-02-16T14:43:01.700Z,13.46
2019-02-16T14:44:06.472Z,13.45
2019-02-16T14:46:04.884Z,13.41
2019-02-16T14:47:10.408Z,13.39
2019-02-16T14:49:08.834Z,13.23
2019-02-16T14:50:14.346Z,13.23
2019-02-16T14:52:12.745Z,13.20
2019-02-16T14:53:18.278Z,13.20
2019-02-16T14:55:16.703Z,13.15
2019-02-16T14:56:22.217Z,13.12
2019-02-16T14:58:20.615Z,13.11
2019-02-16T14:59:26.151Z,13.12
2019-02-16T15:01:24.563Z,13.04
2019-02-16T15:02:30.085Z,13.05
2019-02-16T15:04:28.488Z,12.90
2019-02-16T15:05:34.024Z,12.90
2019-02-16T15:07:32.449Z,12.79
2019-02-16T15:08:37.976Z,12.75
2019-02-16T15:10:36.371Z,12.67
2019-02-16T15:11:41.908Z,12.77
2019-02-16T15:13:40.341Z,12.65
2019-02-16T15:14:45.842Z,12.62
2019-02-16T15:16:44.245Z,12.67
2019-02-16T15:17:49.781Z,12.57
2019-02-16T15:19:48.212Z,12.56
2019-02-16T15:20:53.725Z,12.45
2019-02-16T15:22:52.121Z,12.38
2019-02-16T15:23:57.655Z,12.37
2019-02-16T15:26:01.182Z,12.21
2019-02-16T15:27:01.592Z,12.29
2019-02-16T15:28:59.995Z,12.07
2019-02-16T15:30:05.525Z,12.12
2019-02-16T15:32:03.935Z,12.12
2019-02-16T15:33:09.459Z,12.04
2019-02-16T15:35:07.864Z,11.98
2019-02-16T15:36:13.392Z,12.05
2019-02-16T15:38:11.811Z,11.96
2019-02-16T15:39:17.326Z,11.94
2019-02-16T15:41:15.755Z,11.85
2019-02-16T15:42:21.265Z,11.80
2019-02-16T15:44:19.663Z,11.67
2019-02-16T15:45:25.201Z,11.58
2019-02-16T15:47:23.644Z,11.43
2019-02-16T15:48:29.137Z,11.37
2019-02-16T15:50:27.567Z,11.17
2019-02-16T15:51:33.076Z,11.19
2019-02-16T15:53:31.526Z,10.99
2019-02-16T15:54:37.040Z,10.91
2019-02-16T15:56:35.461Z,10.82
2019-02-16T15:57:40.989Z,10.81
2019-02-16T15:59:39.408Z,10.73
2019-02-16T16:00:44.921Z,10.63
2019-02-16T16:02:44.189Z,10.45
2019-02-16T16:03:49.730Z,10.47
2019-02-16T16:05:48.185Z,10.33
2019-02-16T16:06:53.696Z,10.32
2019-02-16T16:08:52.132Z,10.11
2019-02-16T16:09:57.631Z,10.14
2019-02-16T16:11:56.049Z,10.08
2019-02-16T16:13:01.586Z,10.09
2019-02-16T16:14:59.986Z,9.96
2019-02-16T16:16:05.501Z,9.91
2019-02-16T16:18:03.933Z,9.81
2019-02-16T16:19:09.500Z,9.81
2019-02-16T16:21:07.886Z,9.71
2019-02-16T16:22:13.392Z,9.74
2019-02-16T16:24:12.083Z,9.65
2019-02-16T16:25:17.572Z,9.48
2019-02-16T16:27:15.976Z,9.42
2019-02-16T16:28:21.523Z,9.35
2019-02-16T16:30:19.944Z,9.28
2019-02-16T16:31:25.437Z,9.32
2019-02-16T16:33:23.842Z,9.23
2019-02-16T16:34:29.362Z,9.17
2019-02-16T16:36:28.866Z,9.05
2019-02-16T16:37:33.841Z,9.10
2019-02-16T16:39:32.571Z,8.98
2019-02-16T16:40:38.082Z,8.95
2019-02-16T16:42:36.480Z,8.94
2019-02-16T16:43:42.010Z,8.96
2019-02-16T16:45:40.430Z,8.86
2019-02-16T16:46:45.953Z,8.81
2019-02-16T16:48:44.351Z,8.76
2019-02-16T16:49:49.878Z,8.56
2019-02-16T16:51:48.309Z,8.56
2019-02-16T16:52:53.824Z,8.53
2019-02-16T16:54:52.244Z,8.43
2019-02-16T16:55:57.753Z,8.33
2019-02-16T16:57:56.153Z,8.30
2019-02-16T16:59:01.680Z,8.22
2019-02-16T17:01:00.095Z,8.22
2019-02-16T17:02:05.610Z,8.19
2019-02-16T17:04:04.006Z,8.22
2019-02-16T17:05:09.539Z,8.04
2019-02-16T17:07:08.536Z,8.02
2019-02-16T17:08:13.467Z,8.01
2019-02-16T17:10:11.862Z,7.89
2019-02-16T17:11:17.398Z,7.90
2019-02-16T17:13:15.803Z,7.85
2019-02-16T17:14:21.322Z,7.82
2019-02-16T17:16:19.740Z,7.69
2019-02-16T17:17:25.251Z,7.63
2019-02-16T17:19:23.646Z,7.64
2019-02-16T17:20:29.174Z,7.61
2019-02-16T17:22:28.447Z,7.61
2019-02-16T17:23:33.956Z,7.68
2019-02-16T17:25:32.366Z,7.60
2019-02-16T17:26:38.234Z,7.61
2019-02-16T17:28:36.298Z,7.61
2019-02-16T17:29:41.810Z,7.60
2019-02-16T17:31:40.214Z,7.52
2019-02-16T17:32:45.744Z,7.50
2019-02-16T17:34:44.150Z,7.45
2019-02-16T17:35:49.666Z,7.43
2019-02-16T17:37:48.081Z,7.46
2019-02-16T17:38:53.598Z,7.43
2019-02-16T17:40:51.993Z,7.30
2019-02-16T17:41:57.523Z,7.32
2019-02-16T17:43:55.933Z,7.25
2019-02-16T17:45:01.455Z,7.31
2019-02-16T17:46:59.846Z,7.25
2019-02-16T17:48:05.377Z,7.27
2019-02-16T17:50:03.791Z,7.21
2019-02-16T17:51:09.301Z,7.17
2019-02-16T17:53:07.773Z,7.09
2019-02-16T17:54:13.230Z,7.07
2019-02-16T17:56:11.628Z,7.06
2019-02-16T17:57:17.156Z,7.07
2019-02-16T17:59:15.564Z,6.99
2019-02-16T18:00:21.081Z,7.05
2019-02-16T18:02:19.478Z,7.07
2019-02-16T18:03:25.008Z,7.05
2019-02-16T18:05:23.419Z,6.91
2019-02-16T18:06:28.936Z,6.91
2019-02-16T18:08:27.338Z,6.91
2019-02-16T18:09:32.867Z,6.77
2019-02-16T18:11:31.283Z,6.73
2019-02-16T18:12:36.797Z,6.67
2019-02-16T18:14:35.204Z,6.66
2019-02-16T18:15:40.714Z,6.62
2019-02-16T18:17:39.107Z,6.66
2019-02-16T18:18:44.643Z,6.52
2019-02-16T18:20:43.050Z,6.51
2019-02-16T18:21:48.568Z,6.48
2019-02-16T18:23:47.057Z,6.41
2019-02-16T18:24:52.485Z,6.41
2019-02-16T18:26:56.584Z,6.37
2019-02-16T18:27:56.420Z,6.28
2019-02-16T18:29:54.833Z,6.21
2019-02-16T18:31:00.361Z,6.21
2019-02-16T18:32:58.743Z,6.19
2019-02-16T18:34:04.275Z,6.21
2019-02-16T18:36:02.673Z,6.17
2019-02-16T18:37:08.189Z,6.14
2019-02-16T18:39:06.579Z,6.15
2019-02-16T18:40:12.145Z,6.12
2019-02-16T18:42:10.536Z,6.06
2019-02-16T18:43:16.034Z,6.01
2019-02-16T18:45:14.442Z,5.93
2019-02-16T18:46:19.957Z,5.89
2019-02-16T18:48:18.364Z,5.81
2019-02-16T18:49:23.891Z,5.83
2019-02-16T18:51:22.298Z,5.82
2019-02-16T18:52:27.798Z,5.75
2019-02-16T18:54:26.205Z,5.64
2019-02-16T18:55:31.721Z,5.67
2019-02-16T18:57:30.147Z,5.67
2019-02-16T18:58:35.660Z,5.64
2019-02-16T19:00:34.034Z,5.63
2019-02-16T19:01:39.562Z,5.56
2019-02-16T19:03:37.978Z,5.51
2019-02-16T19:04:43.491Z,5.46
2019-02-16T19:06:41.880Z,5.46
2019-02-16T19:07:47.963Z,5.35
2019-02-16T19:09:45.816Z,5.43
2019-02-16T19:10:51.363Z,5.43
2019-02-16T19:12:49.740Z,5.39
2019-02-16T19:13:55.256Z,5.30
2019-02-16T19:15:53.653Z,5.28
2019-02-16T19:16:59.213Z,5.18
2019-02-16T19:18:57.593Z,5.21
2019-02-16T19:20:03.104Z,5.31
2019-02-16T19:22:01.493Z,5.18
2019-02-16T19:23:07.025Z,5.28
2019-02-16T19:25:05.443Z,5.18
2019-02-16T19:26:10.939Z,5.20
2019-02-16T19:28:09.348Z,5.25
2019-02-16T19:29:14.869Z,5.27
2019-02-16T19:31:13.256Z,5.24
2019-02-16T19:32:18.786Z,5.24
2019-02-16T19:34:17.189Z,5.33
2019-02-16T19:35:22.705Z,5.30
2019-02-16T19:37:21.098Z,5.28
2019-02-16T19:38:26.625Z,5.20
2019-02-16T19:40:25.043Z,5.24
2019-02-16T19:41:30.540Z,5.22
2019-02-16T19:43:28.937Z,5.13
2019-02-16T19:44:34.554Z,5.02
2019-02-16T19:46:32.886Z,5.15
2019-02-16T19:47:38.388Z,5.15
2019-02-16T19:49:36.792Z,5.18
2019-02-16T19:50:42.308Z,5.24
2019-02-16T19:52:40.702Z,5.22
2019-02-16T19:53:46.230Z,5.15
2019-02-16T19:55:44.634Z,5.15
2019-02-16T19:56:50.153Z,5.15
2019-02-16T19:58:48.545Z,5.15
2019-02-16T19:59:54.073Z,5.24
2019-02-16T20:01:52.479Z,5.13
2019-02-16T20:02:57.992Z,5.20
2019-02-16T20:04:56.397Z,5.22
2019-02-16T20:06:01.919Z,5.28
2019-02-16T20:08:00.305Z,5.18
2019-02-16T20:09:05.841Z,5.25
2019-02-16T20:11:04.240Z,5.33
2019-02-16T20:12:09.754Z,5.27